Decoded Metar for EHGR (GILZE-RIJEN in NETHERLANDS) (IATA:N/A) | Meteo·Mobile Aviation Weather
aviador You're here:

EHGR Decoded Metar

GILZE-RIJEN in NETHERLANDS
Report Time2018-10-19 19:55:00
UTC Time2018-10-19 20:25:37
Flight Rules vfr VFR
Wind010° at 06 kt
W.Decomp.*RWY 02: 5.9 kt HW 0.9 kt LCW
RWY 10: 0.1 kt HW 6 kt LCW
W.Rank010° ranks 25
Current wind is below 010° avg. (6.4)
Visibility9999 m
Phenomena:N/A
Clouds:Overcast 033 Hf
Expected CloudBase > 800 ft AGL from Temp-Dew spread
Ceiling3,300 ft
Temp10°C (ISA -5)
Dew Point08°C (88% RH)
AAT7.4°C
QNH1027 hPa
Density Alt-873 ft
Elevation43 ft
Report Wrong Elevation
Raw Report
EHGR 191955Z AUTO 01006KT 320V050 9999 OVC033 10/08 Q1027 BLU=

Extra information for EHGR:More info

Metar Taf Metar & Taf Last 4 Metars F.Rules Stats Wind Profile Meteogram Temp Stats Airport Information Weather charts Add Link Nearby VenuesMetar ALERT Operation Metar Decoded Social comments